Time;durP1;ratioP1;P1;durP2;ratioP2;P2;SDS_P1;SDS_P2;PMS_P1;PMS_P2;Temp;Humidity;BMP_temperature;BMP_pressure;BME280_temperature;BME280_humidity;BME280_pressure;Samples;Min_cycle;Max_cycle;Signal;HPM_P1;HPM_P2
2023/02/05 00:03:18;;;;;;;5.07;2.13;;;;;;;;;;4905472;29;20124;-96
2023/02/05 00:05:44;;;;;;;4.68;2.00;;;;;;;;;;4891527;29;20123;-95
2023/02/05 00:08:26;;;;;;;3.55;1.67;;;;;;;;;;4907196;29;20032;-96
2023/02/05 00:11:04;;;;;;;;;;;;;;;;;;;;;
2023/02/05 00:13:32;;;;;;;4.53;1.73;;;;;;;;;;4906960;29;20278;-96
2023/02/05 00:15:58;;;;;;;7.13;2.08;;;;;;;;;;4905189;29;20044;-94
2023/02/05 00:18:25;;;;;;;5.35;1.50;;;;;;;;;;4906527;29;20032;-96
2023/02/05 00:20:52;;;;;;;4.32;1.70;;;;;;;;;;4907750;29;20119;-96
2023/02/05 00:23:21;;;;;;;5.03;1.58;;;;;;;;;;4910304;29;20024;-96
2023/02/05 00:25:47;;;;;;;5.13;1.92;;;;;;;;;;4907116;29;20052;-96
2023/02/05 00:28:14;;;;;;;4.97;1.80;;;;;;;;;;4906383;29;20037;-96
2023/02/05 00:31:10;;;;;;;3.08;1.52;;;;;;;;;;4908725;29;20051;-96
2023/02/05 00:33:50;;;;;;;5.00;1.63;;;;;;;;;;4895719;29;20041;-96
2023/02/05 00:36:21;;;;;;;3.13;1.52;;;;;;;;;;4908709;29;20036;-96
2023/02/05 00:38:56;;;;;;;5.93;1.92;;;;;;;;;;4907657;29;20131;-95
2023/02/05 00:41:22;;;;;;;3.95;1.70;;;;;;;;;;4906132;29;20029;-96
2023/02/05 00:43:49;;;;;;;4.88;1.75;;;;;;;;;;4904962;29;20051;-96
2023/02/05 00:46:18;;;;;;;4.60;1.50;;;;;;;;;;4977842;23;20060;-96
2023/02/05 00:48:48;;;;;;;4.80;1.70;;;;;;;;;;4906008;29;20041;-96
2023/02/05 00:51:22;;;;;;;3.05;1.42;;;;;;;;;;4908826;29;20029;-96
2023/02/05 00:53:51;;;;;;;4.13;1.50;;;;;;;;;;4905021;29;20047;-95
2023/02/05 00:56:18;;;;;;;3.97;1.63;;;;;;;;;;4905455;29;20115;-94
2023/02/05 00:58:49;;;;;;;3.45;1.50;;;;;;;;;;4904354;29;20020;-95
2023/02/05 01:01:25;;;;;;;3.38;1.60;;;;;;;;;;4876110;29;20045;-96
2023/02/05 01:03:51;;;;;;;4.78;2.15;;;;;;;;;;4906379;29;20035;-96
2023/02/05 01:06:20;;;;;;;5.47;1.88;;;;;;;;;;4908082;29;20032;-95
2023/02/05 01:08:49;;;;;;;5.03;1.73;;;;;;;;;;4907520;29;20036;-96
2023/02/05 01:11:29;;;;;;;5.88;1.70;;;;;;;;;;4907995;29;20308;-96
2023/02/05 01:13:57;;;;;;;3.22;1.45;;;;;;;;;;4908661;29;20108;-96
2023/02/05 01:16:31;;;;;;;7.93;1.77;;;;;;;;;;4905799;29;20036;-96
2023/02/05 01:19:29;;;;;;;;;;;;;;;;;;;;;
2023/02/05 01:21:57;;;;;;;5.35;1.90;;;;;;;;;;4846821;29;20100;-96
2023/02/05 01:24:30;;;;;;;4.85;1.60;;;;;;;;;;4906920;29;20026;-96
2023/02/05 01:27:18;;;;;;;;;;;;;;;;;;;;;
2023/02/05 01:29:47;;;;;;;5.10;1.92;;;;;;;;;;4905843;29;20100;-95
2023/02/05 01:35:19;;;;;;;4.07;1.80;;;;;;;;;;4886210;29;20040;-95
2023/02/05 01:37:48;;;;;;;4.75;2.00;;;;;;;;;;4908524;29;20036;-96
2023/02/05 01:40:33;;;;;;;3.55;1.60;;;;;;;;;;4909835;29;20056;-96
2023/02/05 01:43:09;;;;;;;10.95;2.58;;;;;;;;;;4909827;29;20028;-95
2023/02/05 01:45:41;;;;;;;3.40;1.48;;;;;;;;;;4908929;29;20057;-96
2023/02/05 01:48:34;;;;;;;;;;;;;;;;;;;;;
2023/02/05 01:54:20;;;;;;;3.33;1.60;;;;;;;;;;4901902;29;20017;-96
2023/02/05 01:57:21;;;;;;;8.25;2.25;;;;;;;;;;4911599;29;20025;-96
2023/02/05 02:00:20;;;;;;;5.07;1.70;;;;;;;;;;4912381;29;20037;-96
2023/02/05 02:03:28;;;;;;;;;;;;;;;;;;;;;
2023/02/05 02:12:36;;;;;;;5.15;1.80;;;;;;;;;;4761903;30;20040;-94
2023/02/05 02:15:39;;;;;;;4.30;1.60;;;;;;;;;;4848435;29;20042;-95
2023/02/05 02:33:40;;;;;;;5.55;1.70;;;;;;;;;;4870373;29;20113;-95
2023/02/05 02:36:26;;;;;;;;;;;;;;;;;;;;;
2023/02/05 02:39:05;;;;;;;;;;;;;;;;;;;;;
2023/02/05 02:45:12;;;;;;;;;;;;;;;;;;;;;
2023/02/05 02:47:50;;;;;;;4.10;1.52;;;;;;;;;;4864419;29;20072;-96
2023/02/05 02:50:34;;;;;;;6.70;2.20;;;;;;;;;;4851453;29;20037;-96
2023/02/05 02:53:13;;;;;;;5.30;2.08;;;;;;;;;;4836989;29;20446;-96
2023/02/05 02:58:39;;;;;;;5.18;2.13;;;;;;;;;;4858012;29;20102;-96
2023/02/05 03:01:10;;;;;;;3.63;1.60;;;;;;;;;;4853772;29;20161;-96
2023/02/05 03:03:49;;;;;;;5.67;2.00;;;;;;;;;;4870799;29;20044;-95
2023/02/05 03:06:20;;;;;;;4.53;1.98;;;;;;;;;;4906462;29;20285;-96
2023/02/05 03:09:30;;;;;;;5.05;1.83;;;;;;;;;;4909025;29;20038;-96
2023/02/05 03:11:58;;;;;;;6.82;2.03;;;;;;;;;;4894427;29;20044;-95
2023/02/05 03:14:24;;;;;;;8.43;2.10;;;;;;;;;;4904780;29;20032;-96
2023/02/05 03:16:53;;;;;;;5.63;1.80;;;;;;;;;;4904090;29;20025;-96
2023/02/05 03:19:37;;;;;;;;;;;;;;;;;;;;;
2023/02/05 03:22:20;;;;;;;6.32;2.00;;;;;;;;;;4907202;29;20533;-96
2023/02/05 03:24:47;;;;;;;5.13;2.15;;;;;;;;;;4903796;29;20021;-95
2023/02/05 03:27:22;;;;;;;5.10;2.00;;;;;;;;;;4902251;29;20075;-96
2023/02/05 03:29:50;;;;;;;5.53;1.90;;;;;;;;;;4900433;29;20036;-96
2023/02/05 03:32:28;;;;;;;4.43;1.70;;;;;;;;;;4903626;29;20434;-96
2023/02/05 03:35:13;;;;;;;5.65;1.80;;;;;;;;;;4901584;29;20031;-96
2023/02/05 03:37:58;;;;;;;6.35;2.13;;;;;;;;;;4904767;29;20439;-95
2023/02/05 03:40:43;;;;;;;4.90;1.95;;;;;;;;;;4915379;29;20096;-95
2023/02/05 03:43:24;;;;;;;5.90;1.98;;;;;;;;;;4908238;29;20033;-96
2023/02/05 03:46:01;;;;;;;5.38;1.90;;;;;;;;;;4902777;29;20458;-96
2023/02/05 03:48:47;;;;;;;7.25;2.17;;;;;;;;;;4903015;29;20040;-95
2023/02/05 03:51:31;;;;;;;4.82;2.10;;;;;;;;;;4902602;29;20056;-96
2023/02/05 03:54:06;;;;;;;4.63;1.63;;;;;;;;;;4906902;29;20040;-96
2023/02/05 03:57:01;;;;;;;4.07;1.58;;;;;;;;;;4900538;29;20033;-96
2023/02/05 03:59:31;;;;;;;6.00;1.55;;;;;;;;;;4899072;29;20037;-96
2023/02/05 04:01:57;;;;;;;4.53;1.77;;;;;;;;;;4911656;29;20012;-96
2023/02/05 04:04:23;;;;;;;4.88;1.98;;;;;;;;;;4921170;29;20088;-96
2023/02/05 04:06:50;;;;;;;5.53;1.75;;;;;;;;;;4921944;29;20088;-96
2023/02/05 04:09:17;;;;;;;3.30;1.45;;;;;;;;;;4920858;29;20024;-95
2023/02/05 04:11:43;;;;;;;4.10;1.40;;;;;;;;;;4922037;29;20084;-95
2023/02/05 04:14:09;;;;;;;5.78;1.55;;;;;;;;;;4921655;29;20114;-95
2023/02/05 04:16:35;;;;;;;5.25;1.75;;;;;;;;;;4920647;29;20024;-96
2023/02/05 04:19:01;;;;;;;4.82;1.55;;;;;;;;;;4920154;29;20017;-94
2023/02/05 04:21:28;;;;;;;5.85;1.63;;;;;;;;;;4921230;29;20036;-96
2023/02/05 04:23:55;;;;;;;5.47;1.60;;;;;;;;;;5010192;23;20055;-95
2023/02/05 04:26:22;;;;;;;3.42;1.67;;;;;;;;;;4907815;29;20037;-95
2023/02/05 04:28:48;;;;;;;5.45;1.63;;;;;;;;;;4904112;29;20487;-95
2023/02/05 04:31:14;;;;;;;3.58;1.70;;;;;;;;;;4904457;29;20084;-95
2023/02/05 04:33:41;;;;;;;4.65;1.92;;;;;;;;;;4907377;29;20058;-95
2023/02/05 04:36:07;;;;;;;4.28;1.42;;;;;;;;;;4901378;29;20037;-95
2023/02/05 04:38:34;;;;;;;5.68;1.40;;;;;;;;;;4904360;29;20035;-96
2023/02/05 04:41:00;;;;;;;3.75;1.83;;;;;;;;;;4902606;29;20033;-95
2023/02/05 04:43:26;;;;;;;4.70;1.52;;;;;;;;;;4918847;29;20021;-94
2023/02/05 04:45:52;;;;;;;3.70;1.63;;;;;;;;;;4900817;29;20081;-96
2023/02/05 04:48:20;;;;;;;5.28;1.50;;;;;;;;;;4899512;29;20036;-95
2023/02/05 04:50:46;;;;;;;3.72;1.60;;;;;;;;;;4899029;29;20040;-94
2023/02/05 04:53:12;;;;;;;3.90;1.52;;;;;;;;;;4883388;29;20029;-94
2023/02/05 04:55:38;;;;;;;4.93;1.45;;;;;;;;;;4900002;29;20111;-94
2023/02/05 05:07:04;;;;;;;3.33;1.70;;;;;;;;;;4916199;23;20116;-96
2023/02/05 05:09:33;;;;;;;5.78;1.65;;;;;;;;;;4899013;29;20040;-94
2023/02/05 05:11:59;;;;;;;5.28;1.85;;;;;;;;;;4898790;29;20036;-96
2023/02/05 05:14:26;;;;;;;6.78;1.90;;;;;;;;;;4917714;29;20032;-93
2023/02/05 05:16:52;;;;;;;5.60;1.80;;;;;;;;;;4913201;29;20013;-95
2023/02/05 05:19:18;;;;;;;6.63;1.85;;;;;;;;;;4906612;29;20028;-95
2023/02/05 05:21:44;;;;;;;4.28;1.77;;;;;;;;;;4897863;29;20029;-96
2023/02/05 05:24:10;;;;;;;5.00;1.65;;;;;;;;;;4897551;29;20032;-94
2023/02/05 05:26:42;;;;;;;5.20;1.70;;;;;;;;;;4898520;29;20029;-95
2023/02/05 05:29:09;;;;;;;5.70;2.35;;;;;;;;;;4897990;29;20063;-95
2023/02/05 05:31:35;;;;;;;4.93;2.05;;;;;;;;;;4899244;29;20036;-95
2023/02/05 05:34:02;;;;;;;6.78;2.25;;;;;;;;;;4898434;29;20040;-94
2023/02/05 05:36:28;;;;;;;4.30;1.80;;;;;;;;;;4898384;29;20104;-95
2023/02/05 05:38:55;;;;;;;6.05;2.17;;;;;;;;;;4898726;29;20025;-94
2023/02/05 05:44:08;;;;;;;4.03;1.88;;;;;;;;;;4900482;29;20036;-94
2023/02/05 05:46:35;;;;;;;4.68;1.80;;;;;;;;;;4900942;29;20025;-95
2023/02/05 05:49:09;;;;;;;6.05;1.88;;;;;;;;;;4898136;29;20550;-95
2023/02/05 05:51:35;;;;;;;6.38;1.83;;;;;;;;;;4897094;29;20056;-95
2023/02/05 05:54:10;;;;;;;5.32;1.88;;;;;;;;;;4897387;29;20032;-95
2023/02/05 05:56:37;;;;;;;4.85;1.60;;;;;;;;;;4896682;29;20035;-95
2023/02/05 05:59:03;;;;;;;6.45;2.20;;;;;;;;;;4896500;29;20513;-96
2023/02/05 06:01:29;;;;;;;7.28;2.40;;;;;;;;;;4896741;29;20032;-94
2023/02/05 06:03:58;;;;;;;5.80;1.95;;;;;;;;;;4897796;29;20084;-94
2023/02/05 06:06:26;;;;;;;6.80;2.13;;;;;;;;;;4899153;29;20124;-95
2023/02/05 06:09:00;;;;;;;7.55;2.35;;;;;;;;;;4900237;29;20029;-95
2023/02/05 06:11:26;;;;;;;5.55;2.08;;;;;;;;;;4899135;29;20482;-95
2023/02/05 06:14:09;;;;;;;6.88;2.08;;;;;;;;;;4898627;29;20087;-95
2023/02/05 06:23:13;;;;;;;5.07;2.15;;;;;;;;;;4883220;29;20024;-93
2023/02/05 06:28:42;;;;;;;8.95;2.78;;;;;;;;;;4901819;29;20028;-96
2023/02/05 06:31:18;;;;;;;;;;;;;;;;;;;;;
2023/02/05 06:34:20;;;;;;;9.63;3.80;;;;;;;;;;4903508;29;20120;-95
2023/02/05 06:37:28;;;;;;;;;;;;;;;;;;;;;
2023/02/05 06:40:24;;;;;;;5.40;2.55;;;;;;;;;;4906324;29;20132;-96
2023/02/05 06:42:55;;;;;;;8.10;4.28;;;;;;;;;;4813404;29;20042;-95
2023/02/05 06:45:24;;;;;;;6.60;3.55;;;;;;;;;;4830365;29;20071;-96
2023/02/05 06:54:10;;;;;;;7.80;3.70;;;;;;;;;;4768286;30;20031;-96
2023/02/05 07:24:17;;;;;;;;;;;;;;;;;;;;;
2023/02/05 07:43:35;;;;;;;4.20;2.38;;;;;;;;;;5005884;23;20060;-96
2023/02/05 07:47:38;;;;;;;3.35;2.22;;;;;;;;;;4910340;29;20060;-96
2023/02/05 07:50:08;;;;;;;8.48;3.70;;;;;;;;;;4860313;29;20037;-95
2023/02/05 10:39:57;;;;;;;4.15;2.30;;;;;;;;;;4913753;29;20112;-96
2023/02/05 11:06:17;;;;;;;4.80;2.63;;;;;;;;;;6024990;23;20068;-94
2023/02/05 12:02:52;;;;;;;8.57;3.38;;;;;;;;;;4941281;23;20037;-96
2023/02/05 12:10:59;;;;;;;6.18;3.17;;;;;;;;;;5616344;23;20060;-96
2023/02/05 12:13:44;;;;;;;5.45;3.05;;;;;;;;;;4903121;29;20037;-95
2023/02/05 12:16:32;;;;;;;6.18;2.90;;;;;;;;;;4909062;29;20394;-96
2023/02/05 12:25:05;;;;;;;7.78;3.75;;;;;;;;;;5909354;23;20258;-94
2023/02/05 13:30:37;;;;;;;6.47;2.80;;;;;;;;;;4862676;29;20105;-94
2023/02/05 13:33:05;;;;;;;4.28;2.65;;;;;;;;;;4867223;29;20033;-93
2023/02/05 13:35:41;;;;;;;6.00;3.00;;;;;;;;;;4868356;29;20056;-94
2023/02/05 13:38:23;;;;;;;5.05;2.78;;;;;;;;;;4886121;29;20037;-94
2023/02/05 13:40:58;;;;;;;5.93;3.35;;;;;;;;;;4896194;29;20025;-93
2023/02/05 13:43:43;;;;;;;5.38;3.15;;;;;;;;;;4900108;29;20402;-94
2023/02/05 13:46:37;;;;;;;6.55;3.42;;;;;;;;;;4876597;29;20123;-94
2023/02/05 13:52:25;;;;;;;8.15;3.60;;;;;;;;;;4870444;29;20036;-96
2023/02/05 13:55:10;;;;;;;6.85;3.47;;;;;;;;;;4872176;29;20037;-93
2023/02/05 13:58:05;;;;;;;7.75;3.80;;;;;;;;;;4847339;29;20037;-95
2023/02/05 14:00:38;;;;;;;7.63;3.60;;;;;;;;;;4882624;29;20045;-92
2023/02/05 14:03:07;;;;;;;7.65;4.30;;;;;;;;;;4858753;29;20030;-93
2023/02/05 14:05:42;;;;;;;10.15;4.50;;;;;;;;;;4869594;29;20037;-95
2023/02/05 14:08:32;;;;;;;7.63;3.97;;;;;;;;;;4866955;29;20029;-95
2023/02/05 14:11:01;;;;;;;9.13;4.72;;;;;;;;;;4867796;29;20057;-95
2023/02/05 14:13:48;;;;;;;6.78;3.72;;;;;;;;;;4863522;29;20050;-95
2023/02/05 14:16:23;;;;;;;8.63;4.28;;;;;;;;;;4852541;29;20211;-94
2023/02/05 14:18:58;;;;;;;13.13;4.95;;;;;;;;;;4852925;29;20034;-95
2023/02/05 14:21:37;;;;;;;8.52;4.55;;;;;;;;;;4849385;29;20227;-95
2023/02/05 14:24:25;;;;;;;9.27;4.38;;;;;;;;;;4882360;29;20060;-95
2023/02/05 14:38:16;;;;;;;16.05;7.78;;;;;;;;;;5431961;23;20067;-96
2023/02/05 14:44:17;;;;;;;10.70;4.32;;;;;;;;;;4944391;29;20043;-95
2023/02/05 14:47:04;;;;;;;24.67;8.48;;;;;;;;;;4923902;29;20024;-95
2023/02/05 14:49:52;;;;;;;9.68;4.97;;;;;;;;;;4921162;29;20035;-94
2023/02/05 14:52:41;;;;;;;16.15;7.35;;;;;;;;;;4924783;29;20028;-94
2023/02/05 15:00:43;;;;;;;8.30;4.10;;;;;;;;;;4925391;28;20130;-95
2023/02/05 15:03:42;;;;;;;;;;;;;;;;;;;;;
2023/02/05 15:06:20;;;;;;;8.45;4.47;;;;;;;;;;4922813;29;20126;-93
2023/02/05 15:09:11;;;;;;;9.88;4.88;;;;;;;;;;4928182;29;20032;-96
2023/02/05 15:12:02;;;;;;;9.07;4.78;;;;;;;;;;4925105;29;20032;-95
2023/02/05 15:17:48;;;;;;;9.63;5.10;;;;;;;;;;4899131;29;20084;-96
2023/02/05 15:23:33;;;;;;;7.57;4.43;;;;;;;;;;4928181;29;20036;-95
2023/02/05 15:26:59;;;;;;;9.82;4.65;;;;;;;;;;4908225;29;20047;-95
2023/02/05 15:29:23;;;;;;;11.73;5.85;;;;;;;;;;4915787;29;20024;-93
2023/02/05 15:31:53;;;;;;;7.45;4.32;;;;;;;;;;4904864;29;20038;-94
2023/02/05 15:34:27;;;;;;;10.73;5.05;;;;;;;;;;4904449;29;20024;-94
2023/02/05 15:36:56;;;;;;;9.02;5.32;;;;;;;;;;4904203;29;20060;-93
2023/02/05 15:39:43;;;;;;;13.50;6.93;;;;;;;;;;4904803;29;20401;-93
2023/02/05 15:42:10;;;;;;;14.77;7.32;;;;;;;;;;4866434;29;20040;-94
2023/02/05 15:44:36;;;;;;;13.75;7.05;;;;;;;;;;4904260;29;20066;-96
2023/02/05 15:47:21;;;;;;;13.93;6.15;;;;;;;;;;4904415;29;20039;-91
2023/02/05 15:50:05;;;;;;;18.17;8.68;;;;;;;;;;4903695;29;20067;-94
2023/02/05 15:52:31;;;;;;;;;;;;;;;;;;4904960;29;20044;-94
2023/02/05 15:55:17;;;;;;;15.43;7.10;;;;;;;;;;4905378;29;19907;-95
2023/02/05 15:58:03;;;;;;;20.77;9.95;;;;;;;;;;4909045;29;20115;-95
2023/02/05 16:01:02;;;;;;;;;;;;;;;;;;;;;
2023/02/05 16:03:45;;;;;;;21.25;9.38;;;;;;;;;;4935068;29;20040;-96
2023/02/05 16:06:21;;;;;;;16.23;7.68;;;;;;;;;;4922661;29;20110;-95
2023/02/05 16:08:48;;;;;;;12.43;7.35;;;;;;;;;;4924238;29;20032;-95
2023/02/05 16:14:38;;;;;;;13.90;6.82;;;;;;;;;;4942087;29;20480;-94
2023/02/05 16:17:23;;;;;;;11.25;6.10;;;;;;;;;;4989861;23;20059;-96
2023/02/05 16:19:52;;;;;;;9.98;5.40;;;;;;;;;;4924564;29;20095;-95
2023/02/05 16:22:35;;;;;;;10.80;5.95;;;;;;;;;;4925614;29;20050;-96
2023/02/05 16:25:07;;;;;;;9.85;5.20;;;;;;;;;;4925747;29;20034;-95
2023/02/05 16:27:37;;;;;;;11.10;5.07;;;;;;;;;;4927018;29;20039;-94
2023/02/05 16:30:29;;;;;;;10.85;5.53;;;;;;;;;;4927124;29;20040;-96
2023/02/05 16:33:08;;;;;;;10.70;5.45;;;;;;;;;;4849728;29;20126;-96
2023/02/05 16:35:54;;;;;;;9.52;5.57;;;;;;;;;;4848574;29;20069;-95
2023/02/05 16:38:25;;;;;;;10.27;5.00;;;;;;;;;;4837217;29;20038;-94
2023/02/05 16:40:56;;;;;;;11.55;5.68;;;;;;;;;;4922527;29;20036;-95
2023/02/05 16:43:45;;;;;;;9.50;5.32;;;;;;;;;;4939594;29;20036;-94
2023/02/05 16:46:12;;;;;;;12.43;5.47;;;;;;;;;;4928353;29;20028;-94
2023/02/05 16:49:00;;;;;;;10.30;6.07;;;;;;;;;;4927587;29;20024;-95
2023/02/05 16:51:37;;;;;;;10.88;5.03;;;;;;;;;;4928454;29;20040;-93
2023/02/05 16:54:24;;;;;;;11.48;4.90;;;;;;;;;;4956644;29;20091;-94
2023/02/05 16:57:15;;;;;;;9.00;5.00;;;;;;;;;;4926787;29;20476;-95
2023/02/05 17:00:04;;;;;;;10.43;5.85;;;;;;;;;;4925203;29;20047;-94
2023/02/05 17:02:59;;;;;;;11.13;5.80;;;;;;;;;;4928896;29;20405;-95
2023/02/05 17:05:32;;;;;;;10.48;5.60;;;;;;;;;;4885719;29;20036;-94
2023/02/05 17:08:03;;;;;;;10.77;5.13;;;;;;;;;;4921464;29;20023;-93
2023/02/05 17:10:48;;;;;;;13.65;5.63;;;;;;;;;;4919465;29;20292;-94
2023/02/05 17:13:33;;;;;;;13.60;6.03;;;;;;;;;;4917111;29;20032;-93
2023/02/05 17:16:19;;;;;;;11.02;6.07;;;;;;;;;;4919222;29;20052;-93
2023/02/05 17:19:00;;;;;;;11.32;5.95;;;;;;;;;;4938555;29;20032;-95
2023/02/05 17:22:05;;;;;;;11.23;5.70;;;;;;;;;;4924080;29;20052;-92
2023/02/05 17:24:31;;;;;;;10.85;5.75;;;;;;;;;;4824071;29;20672;-92
2023/02/05 17:27:16;;;;;;;12.82;6.40;;;;;;;;;;4809404;29;20167;-93
2023/02/05 17:29:45;;;;;;;13.68;5.57;;;;;;;;;;4815154;29;20125;-96
2023/02/05 17:32:18;;;;;;;20.10;7.82;;;;;;;;;;4826993;29;20041;-92
2023/02/05 17:34:47;;;;;;;17.55;7.97;;;;;;;;;;4827806;29;20030;-94
2023/02/05 17:40:32;;;;;;;17.30;7.55;;;;;;;;;;4863900;29;20116;-94
2023/02/05 17:43:37;;;;;;;19.58;8.52;;;;;;;;;;4864393;29;20029;-95
2023/02/05 17:49:37;;;;;;;12.77;6.88;;;;;;;;;;4850389;29;20058;-94
2023/02/05 17:52:04;;;;;;;11.15;6.05;;;;;;;;;;4860962;29;20036;-95
2023/02/05 17:54:30;;;;;;;13.18;6.78;;;;;;;;;;4860838;29;20494;-93
2023/02/05 18:00:42;;;;;;;11.32;5.90;;;;;;;;;;4878932;29;20033;-94
2023/02/05 18:03:14;;;;;;;10.82;6.20;;;;;;;;;;4864372;29;20143;-93
2023/02/05 18:05:45;;;;;;;12.68;6.57;;;;;;;;;;4865288;29;20090;-93
2023/02/05 18:08:30;;;;;;;;;;;;;;;;;;;;;
2023/02/05 18:13:56;;;;;;;14.02;6.68;;;;;;;;;;4903254;29;20629;-95
2023/02/05 18:16:41;;;;;;;14.93;7.60;;;;;;;;;;5042688;23;20179;-93
2023/02/05 18:22:18;;;;;;;13.38;7.35;;;;;;;;;;4927229;29;20047;-94
2023/02/05 18:55:42;;;;;;;15.52;7.15;;;;;;;;;;4948145;29;20074;-94
2023/02/05 18:59:03;;;;;;;;;;;;;;;;;;;;;
2023/02/05 19:16:11;;;;;;;18.80;8.57;;;;;;;;;;5000695;23;20055;-95
2023/02/05 19:18:47;;;;;;;21.38;10.27;;;;;;;;;;4940737;29;20031;-95
2023/02/05 19:21:47;;;;;;;19.85;9.77;;;;;;;;;;4924110;29;20111;-95
2023/02/05 19:24:17;;;;;;;18.92;9.32;;;;;;;;;;4922806;29;20036;-94
2023/02/05 19:27:28;;;;;;;20.33;8.88;;;;;;;;;;4928337;29;20047;-95
2023/02/05 19:30:30;;;;;;;19.38;9.30;;;;;;;;;;4890231;29;20688;-93
2023/02/05 19:36:48;;;;;;;18.55;9.05;;;;;;;;;;4939879;29;20038;-93
2023/02/05 19:46:34;;;;;;;;;;;;;;;;;;;;;
2023/02/05 19:57:58;;;;;;;15.32;8.65;;;;;;;;;;4957389;23;20079;-93
2023/02/05 20:06:14;;;;;;;15.20;8.15;;;;;;;;;;5069075;23;20417;-94
2023/02/05 20:08:59;;;;;;;17.50;8.02;;;;;;;;;;4904729;29;20032;-95
2023/02/05 20:11:26;;;;;;;15.52;8.23;;;;;;;;;;4902910;29;20036;-94
2023/02/05 20:14:11;;;;;;;18.05;8.75;;;;;;;;;;4901935;29;20060;-93
2023/02/05 20:19:39;;;;;;;16.73;8.35;;;;;;;;;;4868395;29;20060;-95
2023/02/05 20:25:53;;;;;;;24.38;10.23;;;;;;;;;;4858872;29;20041;-95
2023/02/05 20:37:39;;;;;;;;;;;;;;;;;;;;;
2023/02/05 20:40:05;;;;;;;20.38;9.95;;;;;;;;;;4869028;29;20044;-95
2023/02/05 20:42:52;;;;;;;20.23;9.48;;;;;;;;;;4918754;29;20062;-94
2023/02/05 20:46:03;;;;;;;17.60;8.73;;;;;;;;;;4922715;29;20032;-94
2023/02/05 20:48:14;;;;;;;16.67;8.90;;;;;;;;;;4919732;29;20147;-95
2023/02/05 20:51:20;;;;;;;19.73;8.85;;;;;;;;;;4917373;29;20079;-94
2023/02/05 20:54:13;;;;;;;16.88;7.88;;;;;;;;;;4914000;29;20032;-93
2023/02/05 20:59:57;;;;;;;17.38;8.52;;;;;;;;;;4861704;29;20040;-95
2023/02/05 21:02:26;;;;;;;14.23;7.53;;;;;;;;;;4917601;29;20032;-95
2023/02/05 21:05:09;;;;;;;16.40;8.43;;;;;;;;;;4919344;29;20079;-94
2023/02/05 21:07:41;;;;;;;19.48;9.23;;;;;;;;;;4918753;29;20040;-94
2023/02/05 21:10:08;;;;;;;19.38;9.02;;;;;;;;;;4917917;29;20131;-94
2023/02/05 21:12:44;;;;;;;20.30;8.63;;;;;;;;;;4914231;29;20522;-94
2023/02/05 21:27:53;;;;;;;21.77;10.65;;;;;;;;;;4962703;23;20080;-93
2023/02/05 21:30:51;;;;;;;21.45;10.25;;;;;;;;;;4880481;29;20060;-92
2023/02/05 21:36:30;;;;;;;21.75;9.82;;;;;;;;;;4875433;29;20534;-93
2023/02/05 21:39:14;;;;;;;;;;;;;;;;;;;;;
2023/02/05 21:44:52;;;;;;;15.77;8.05;;;;;;;;;;4869762;29;20097;-94
2023/02/05 22:32:21;;;;;;;33.17;14.57;;;;;;;;;;4991853;23;20086;-95
2023/02/05 22:35:12;;;;;;;25.25;11.88;;;;;;;;;;4901120;29;20127;-96
2023/02/05 22:38:59;;;;;;;20.70;9.70;;;;;;;;;;4914247;29;20075;-95
2023/02/05 22:40:57;;;;;;;20.90;9.25;;;;;;;;;;4855257;29;20074;-94
2023/02/05 22:46:56;;;;;;;16.83;8.45;;;;;;;;;;4818277;29;20027;-96
2023/02/05 22:49:36;;;;;;;18.20;9.27;;;;;;;;;;4820896;29;20061;-96
2023/02/05 22:52:02;;;;;;;17.38;8.50;;;;;;;;;;4826471;29;20049;-94
2023/02/05 22:54:31;;;;;;;19.85;9.27;;;;;;;;;;4825295;29;20045;-94
2023/02/05 22:56:57;;;;;;;20.10;9.80;;;;;;;;;;4831194;29;20518;-93
2023/02/05 22:59:32;;;;;;;20.83;9.52;;;;;;;;;;4858859;29;20069;-93
2023/02/05 23:07:53;;;;;;;30.45;12.35;;;;;;;;;;4878706;29;19930;-93
2023/02/05 23:10:19;;;;;;;26.08;10.80;;;;;;;;;;4878059;29;20096;-93
2023/02/05 23:13:07;;;;;;;22.67;9.80;;;;;;;;;;4879092;29;20052;-95
2023/02/05 23:15:56;;;;;;;24.60;10.13;;;;;;;;;;4886165;29;20040;-95
2023/02/05 23:18:37;;;;;;;20.73;9.15;;;;;;;;;;4835030;29;20040;-94
2023/02/05 23:21:13;;;;;;;26.27;11.77;;;;;;;;;;4884235;29;20037;-94
2023/02/05 23:23:41;;;;;;;20.92;10.52;;;;;;;;;;4903759;29;20031;-95
2023/02/05 23:26:13;;;;;;;20.95;9.10;;;;;;;;;;4923455;23;20091;-96
2023/02/05 23:28:45;;;;;;;24.30;11.00;;;;;;;;;;4906735;29;20032;-93
2023/02/05 23:31:36;;;;;;;24.23;10.80;;;;;;;;;;4919234;29;20036;-95
2023/02/05 23:34:22;;;;;;;23.80;10.93;;;;;;;;;;4919377;29;20067;-96
2023/02/05 23:45:08;;;;;;;20.55;10.35;;;;;;;;;;4921692;29;20076;-94
2023/02/05 23:47:35;;;;;;;22.55;10.45;;;;;;;;;;4922238;29;20129;-94
2023/02/05 23:52:57;;;;;;;18.02;9.32;;;;;;;;;;4865792;29;20037;-95
2023/02/05 23:55:26;;;;;;;23.20;10.77;;;;;;;;;;4938033;23;20048;-93
2023/02/05 23:58:05;;;;;;;19.65;9.52;;;;;;;;;;4922775;29;20037;-96
